96MI weather

Dick Huvaere's Heliport
Petoskey, Michigan, United States

Public forecast

Using degrees Fahrenheit for public forecast. Weather courtesy of forecast.io.

METAR (pilot weather report)

Closest report is Harbor Springs Airport, 2.4 nm (4.5 km) NW. Retrieved 2019/06/26 01:37 UTC (18 minutes ago):

KMGN 260137Z AUTO 22005KT 10SM CLR 20/15 A2972 RMK AO2 T02040151

TAF (pilot weather forecast)

Forecast is more than 12 hours old.

Closest forecast is Pellston Regional Airport of Emmet County Airport, 11.0 nm (20.4 km) NNE. Retrieved 2019/06/25 00:22 UTC (1 day ago):

TAF KPLN 252320Z 2600/2624 22012G20KT P6SM FEW060 SCT250 WS020/24040KT FM260200 21011KT P6SM SCT060 SCT250 WS020/24035KT FM260400 23008KT P6SM SCT070 FM261600 26009KT P6SM FEW040 FM261800 26010G18KT P6SM SCT040